Wilson Cadiz — 8PSY — position and weather

sailwx.info

Track history (hours):
 
Tides and Currents Weather Stations Pressure Air Temp Water Temp Dewpoint Dewpoint Depression Visibility Wind Speed Wind Dir Waves Ship Positions

Wilson Cadiz

Last reported at 2017-Apr-30 08:29 UTC. Time now 2017-Apr-30 08:49 UTC.
Position N 58°20' E 006°16'.

Length 100 m; draft 3.6 m.

Type: Ship. MMSI: 314216000.

Date/timePositionNaut miles runAvg speedWind from/ knotsBaromVisibWave heightAir tempDewpointWater temp
2017-Apr-30 08:29N 58°20' E 006°16'0 0.0
2017-Apr-30 07:59N 58°20' E 006°16'0 0.0
2017-Apr-30 07:29N 58°20' E 006°16'0 0.0
2017-Apr-30 06:59N 58°20' E 006°16'0 0.0
2017-Apr-30 06:29N 58°20' E 006°16'0 0.0
2017-Apr-30 05:59N 58°20' E 006°16'0 0.0
2017-Apr-30 05:29N 58°20' E 006°16'0 0.0
2017-Apr-30 04:59N 58°20' E 006°16'0 0.0
2017-Apr-30 04:29N 58°20' E 006°16'0 0.0
2017-Apr-30 03:59N 58°20' E 006°16'0 0.0
2017-Apr-30 03:20N 58°20' E 006°16'0 0.3
2017-Apr-30 03:00N 58°20' E 006°16'3 5.1
2017-Apr-30 02:30N 58°18' E 006°13'3 5.7
2017-Apr-30 02:00N 58°16' E 006°08'5 8.9
2017-Apr-30 01:30N 58°13' E 006°02'611.5
2017-Apr-30 01:00N 58°09' E 005°54'16511.0
2017-Apr-29 10:03N 56°19' E 002°07'0 0.7
2017-Apr-29 10:00N 56°19' E 002°07'12311.3
2017-Apr-28 23:07N 54°57' W 000°35'111.7
2017-Apr-28 23:00N 54°56' W 000°37'  
2017-Apr-26 11:52N 54°44' W 001°06'1 3.3
2017-Apr-26 11:30N 54°45' W 001°06'2 4.5
2017-Apr-26 11:00N 54°47' W 001°07'1 1.3
2017-Apr-26 10:30N 54°47' W 001°07'0 0.2
2017-Apr-26 10:00N 54°48' W 001°07'0 0.2
2017-Apr-26 09:30N 54°48' W 001°07'0 0.5
2017-Apr-26 09:00N 54°47' W 001°08'0 0.1
2017-Apr-26 08:30N 54°47' W 001°08'0 0.1
2017-Apr-26 08:00N 54°47' W 001°08'0 0.4
2017-Apr-26 07:30N 54°47' W 001°07'0 0.7
2017-Apr-26 07:00N 54°47' W 001°07'1 1.1
2017-Apr-26 06:30N 54°46' W 001°07'0 0.9
2017-Apr-26 06:00N 54°46' W 001°07'0 0.8
2017-Apr-26 05:30N 54°46' W 001°07'0 0.8
2017-Apr-26 05:01N 54°45' W 001°07'0 0.4
2017-Apr-26 04:30N 54°45' W 001°06'0 0.3
2017-Apr-26 04:00N 54°45' W 001°06'0 0.5
2017-Apr-26 03:30N 54°45' W 001°06'0 0.6
2017-Apr-26 03:01N 54°45' W 001°06'0 0.1
2017-Apr-26 02:30N 54°45' W 001°06'0 0.3
2017-Apr-26 02:00N 54°44' W 001°06'0 0.7
2017-Apr-26 01:30N 54°44' W 001°06'1 1.5
2017-Apr-26 00:59N 54°43' W 001°06'26 6.6
2017-Apr-25 21:01N 54°30' W 000°27'0 7.1
2017-Apr-25 21:01N 54°30' W 000°27'4 7.7
2017-Apr-25 20:31N 54°27' W 000°23'4 7.3
2017-Apr-25 20:01N 54°24' W 000°19'4 7.6
2017-Apr-25 19:31N 54°21' W 000°15'4 7.2
2017-Apr-25 19:01N 54°18' W 000°11'3 6.8
2017-Apr-25 18:30N 54°16' W 000°07'3 6.6
2017-Apr-25 18:00N 54°13' W 000°03'3 6.1
2017-Apr-25 17:30N 54°11' E 000°00'3 5.6
2017-Apr-25 17:01N 54°09' E 000°03'3 5.7
2017-Apr-25 16:30N 54°07' E 000°06'3 5.1
2017-Apr-25 16:00N 54°05' E 000°10'2 4.8
2017-Apr-25 15:30N 54°03' E 000°12'2 4.5
2017-Apr-25 15:00N 54°01' E 000°15'2 4.5
2017-Apr-25 14:30N 53°60' E 000°18'54 6.7
2017-Apr-25 06:25N 53°14' E 001°07'2 5.1
2017-Apr-25 06:01N 53°13' E 001°09'2 4.7
2017-Apr-25 05:29N 53°11' E 001°12'2 4.8
2017-Apr-25 05:00N 53°09' E 001°15'2 4.8
2017-Apr-25 04:30N 53°08' E 001°19'2 4.6
2017-Apr-25 04:00N 53°06' E 001°21'2 4.1
2017-Apr-25 03:30N 53°04' E 001°23'2 4.6
2017-Apr-25 03:00N 53°03' E 001°26'3 5.3
2017-Apr-25 02:30N 53°01' E 001°29'4 7.1
2017-Apr-25 02:00N 52°59' E 001°33'4 8.4
2017-Apr-25 01:30N 52°56' E 001°38'5 9.8
2017-Apr-25 01:00N 52°52' E 001°43'510.3
2017-Apr-25 00:30N 52°48' E 001°49'510.8
2017-Apr-25 00:01N 52°44' E 001°55'611.5
2017-Apr-24 23:30N 52°38' E 001°56'2410.2
2017-Apr-24 21:10N 52°15' E 001°53'2 9.4
2017-Apr-24 21:00N 52°13' E 001°53'5 9.2
2017-Apr-24 20:30N 52°08' E 001°52'4 8.8
2017-Apr-24 20:00N 52°04' E 001°50'4 8.2
2017-Apr-24 19:30N 52°00' E 001°50'4 8.2
2017-Apr-24 19:00N 51°56' E 001°49'4 7.9
2017-Apr-24 18:30N 51°52' E 001°48'4 8.2
2017-Apr-24 18:00N 51°48' E 001°48'4 8.4
2017-Apr-24 17:30N 51°44' E 001°49'4 8.9
2017-Apr-24 17:00N 51°39' E 001°49'5 9.6
2017-Apr-24 16:30N 51°35' E 001°48'510.1
2017-Apr-24 16:00N 51°30' E 001°47'510.3
2017-Apr-24 15:30N 51°25' E 001°45'510.6
2017-Apr-24 15:00N 51°19' E 001°43'510.6
2017-Apr-24 14:30N 51°15' E 001°39'8 7.9
2017-Apr-24 13:30N 51°07' E 001°39'5 9.9
2017-Apr-24 13:00N 51°02' E 001°36'611.9
2017-Apr-24 12:30N 50°57' E 001°31'612.3
2017-Apr-24 12:00N 50°52' E 001°27'612.5
2017-Apr-24 11:30N 50°46' E 001°23'3611.2
2017-Apr-24 08:19N 50°26' E 000°37'412.1
2017-Apr-24 08:00N 50°25' E 000°31'612.4
2017-Apr-24 07:29N 50°23' E 000°21'712.9
2017-Apr-24 06:58N 50°22' E 000°11'712.7
2017-Apr-24 06:27N 50°20' E 000°01'612.7
2017-Apr-24 06:00N 50°18' W 000°08'612.7
2017-Apr-24 05:30N 50°17' W 000°17'612.6
2017-Apr-24 05:00N 50°15' W 000°27'612.3
2017-Apr-24 04:30N 50°13' W 000°36'611.8
2017-Apr-24 04:00N 50°12' W 000°45'611.3
2017-Apr-24 03:30N 50°10' W 000°53'510.6
2017-Apr-24 03:00N 50°09' W 001°01'13 9.3
2017-Apr-24 01:38N 50°06' W 001°21'4 8.3
2017-Apr-24 01:06N 50°04' W 001°27'1 8.0
2017-Apr-24 01:00N 50°04' W 001°28'33 8.2
2017-Apr-23 20:56N 49°54' W 002°18'510.6
2017-Apr-23 20:30N 49°53' W 002°25'611.0
2017-Apr-23 20:00N 49°52' W 002°33'611.2
2017-Apr-23 19:30N 49°50' W 002°42'611.5
2017-Apr-23 19:00N 49°49' W 002°50'611.4
2017-Apr-23 18:30N 49°47' W 002°59'611.3
2017-Apr-23 18:00N 49°45' W 003°07'1111.5
2017-Apr-23 17:02N 49°39' W 003°21'011.4
2017-Apr-23 17:00N 49°38' W 003°22'611.5
2017-Apr-23 16:30N 49°35' W 003°29'911.5
2017-Apr-23 15:44N 49°31' W 003°41'311.5
2017-Apr-23 15:29N 49°29' W 003°44'611.5
2017-Apr-23 15:00N 49°26' W 003°52'611.4
2017-Apr-23 14:30N 49°23' W 003°59'1111.3
2017-Apr-23 13:30N 49°18' W 004°14'611.1
2017-Apr-23 13:00N 49°15' W 004°21'510.9
2017-Apr-23 12:30N 49°12' W 004°29'610.8
2017-Apr-23 11:58N 49°09' W 004°36'2010.2
2017-Apr-23 09:57N 48°59' W 005°03'5 9.6
2017-Apr-23 09:28N 48°56' W 005°09'8 9.2
2017-Apr-23 08:39N 48°53' W 005°19'1 8.9
2017-Apr-23 08:30N 48°52' W 005°21'4 8.8
2017-Apr-23 08:00N 48°50' W 005°27'4 8.7
2017-Apr-23 07:30N 48°47' W 005°32'4 8.4
2017-Apr-23 07:00N 48°45' W 005°37'14 8.7
2017-Apr-23 05:23N 48°32' W 005°46'4 8.7
2017-Apr-23 04:57N 48°28' W 005°49'162 9.3
2017-Apr-22 11:30N 46°05' W 007°39'15 8.6
2017-Apr-22 09:45N 45°52' W 007°49'3 8.3
2017-Apr-22 09:27N 45°50' W 007°51'4 8.3
2017-Apr-22 08:57N 45°46' W 007°54'3 7.8
2017-Apr-22 08:30N 45°43' W 007°56'4 8.1
2017-Apr-22 07:59N 45°39' W 007°59'4 7.9
2017-Apr-22 07:29N 45°36' W 008°01'4 7.9
2017-Apr-22 07:00N 45°32' W 008°04'  
Track history (hours):
 
Tides and Currents Weather Stations Pressure Air Temp Water Temp Dewpoint Dewpoint Depression Visibility Wind Speed Wind Dir Waves Ship Positions

Wilson Cadiz

Last reported at 2017-Apr-30 08:29 UTC. Time now 2017-Apr-30 08:49 UTC.
Position N 58°20' E 006°16'.

Length 100 m; draft 3.6 m.

Type: Ship. MMSI: 314216000.

Date/timePositionNaut miles runAvg speedWind from/ knotsBaromVisibWave heightAir tempDewpointWater temp
2017-Apr-30 08:29N 58°20' E 006°16'0 0.0
2017-Apr-30 07:59N 58°20' E 006°16'0 0.0
2017-Apr-30 07:29N 58°20' E 006°16'0 0.0
2017-Apr-30 06:59N 58°20' E 006°16'0 0.0
2017-Apr-30 06:29N 58°20' E 006°16'0 0.0
2017-Apr-30 05:59N 58°20' E 006°16'0 0.0
2017-Apr-30 05:29N 58°20' E 006°16'0 0.0
2017-Apr-30 04:59N 58°20' E 006°16'0 0.0
2017-Apr-30 04:29N 58°20' E 006°16'0 0.0
2017-Apr-30 03:59N 58°20' E 006°16'0 0.0
2017-Apr-30 03:20N 58°20' E 006°16'0 0.3
2017-Apr-30 03:00N 58°20' E 006°16'3 5.1
2017-Apr-30 02:30N 58°18' E 006°13'3 5.7
2017-Apr-30 02:00N 58°16' E 006°08'5 8.9
2017-Apr-30 01:30N 58°13' E 006°02'611.5
2017-Apr-30 01:00N 58°09' E 005°54'16511.0
2017-Apr-29 10:03N 56°19' E 002°07'0 0.7
2017-Apr-29 10:00N 56°19' E 002°07'12311.3
2017-Apr-28 23:07N 54°57' W 000°35'111.7
2017-Apr-28 23:00N 54°56' W 000°37'  
2017-Apr-26 11:52N 54°44' W 001°06'1 3.3
2017-Apr-26 11:30N 54°45' W 001°06'2 4.5
2017-Apr-26 11:00N 54°47' W 001°07'1 1.3
2017-Apr-26 10:30N 54°47' W 001°07'0 0.2
2017-Apr-26 10:00N 54°48' W 001°07'0 0.2
2017-Apr-26 09:30N 54°48' W 001°07'0 0.5
2017-Apr-26 09:00N 54°47' W 001°08'0 0.1
2017-Apr-26 08:30N 54°47' W 001°08'0 0.1
2017-Apr-26 08:00N 54°47' W 001°08'0 0.4
2017-Apr-26 07:30N 54°47' W 001°07'0 0.7
2017-Apr-26 07:00N 54°47' W 001°07'1 1.1
2017-Apr-26 06:30N 54°46' W 001°07'0 0.9
2017-Apr-26 06:00N 54°46' W 001°07'0 0.8
2017-Apr-26 05:30N 54°46' W 001°07'0 0.8
2017-Apr-26 05:01N 54°45' W 001°07'0 0.4
2017-Apr-26 04:30N 54°45' W 001°06'0 0.3
2017-Apr-26 04:00N 54°45' W 001°06'0 0.5
2017-Apr-26 03:30N 54°45' W 001°06'0 0.6
2017-Apr-26 03:01N 54°45' W 001°06'0 0.1
2017-Apr-26 02:30N 54°45' W 001°06'0 0.3
2017-Apr-26 02:00N 54°44' W 001°06'0 0.7
2017-Apr-26 01:30N 54°44' W 001°06'1 1.5
2017-Apr-26 00:59N 54°43' W 001°06'26 6.6
2017-Apr-25 21:01N 54°30' W 000°27'0 7.1
2017-Apr-25 21:01N 54°30' W 000°27'4 7.7
2017-Apr-25 20:31N 54°27' W 000°23'4 7.3
2017-Apr-25 20:01N 54°24' W 000°19'4 7.6
2017-Apr-25 19:31N 54°21' W 000°15'4 7.2
2017-Apr-25 19:01N 54°18' W 000°11'3 6.8
2017-Apr-25 18:30N 54°16' W 000°07'3 6.6
2017-Apr-25 18:00N 54°13' W 000°03'3 6.1
2017-Apr-25 17:30N 54°11' E 000°00'3 5.6
2017-Apr-25 17:01N 54°09' E 000°03'3 5.7
2017-Apr-25 16:30N 54°07' E 000°06'3 5.1
2017-Apr-25 16:00N 54°05' E 000°10'2 4.8
2017-Apr-25 15:30N 54°03' E 000°12'2 4.5
2017-Apr-25 15:00N 54°01' E 000°15'2 4.5
2017-Apr-25 14:30N 53°60' E 000°18'54 6.7
2017-Apr-25 06:25N 53°14' E 001°07'2 5.1
2017-Apr-25 06:01N 53°13' E 001°09'2 4.7
2017-Apr-25 05:29N 53°11' E 001°12'2 4.8
2017-Apr-25 05:00N 53°09' E 001°15'2 4.8
2017-Apr-25 04:30N 53°08' E 001°19'2 4.6
2017-Apr-25 04:00N 53°06' E 001°21'2 4.1
2017-Apr-25 03:30N 53°04' E 001°23'2 4.6
2017-Apr-25 03:00N 53°03' E 001°26'3 5.3
2017-Apr-25 02:30N 53°01' E 001°29'4 7.1
2017-Apr-25 02:00N 52°59' E 001°33'4 8.4
2017-Apr-25 01:30N 52°56' E 001°38'5 9.8
2017-Apr-25 01:00N 52°52' E 001°43'510.3
2017-Apr-25 00:30N 52°48' E 001°49'510.8
2017-Apr-25 00:01N 52°44' E 001°55'611.5
2017-Apr-24 23:30N 52°38' E 001°56'2410.2
2017-Apr-24 21:10N 52°15' E 001°53'2 9.4
2017-Apr-24 21:00N 52°13' E 001°53'5 9.2
2017-Apr-24 20:30N 52°08' E 001°52'4 8.8
2017-Apr-24 20:00N 52°04' E 001°50'4 8.2
2017-Apr-24 19:30N 52°00' E 001°50'4 8.2
2017-Apr-24 19:00N 51°56' E 001°49'4 7.9
2017-Apr-24 18:30N 51°52' E 001°48'4 8.2
2017-Apr-24 18:00N 51°48' E 001°48'4 8.4
2017-Apr-24 17:30N 51°44' E 001°49'4 8.9
2017-Apr-24 17:00N 51°39' E 001°49'5 9.6
2017-Apr-24 16:30N 51°35' E 001°48'510.1
2017-Apr-24 16:00N 51°30' E 001°47'510.3
2017-Apr-24 15:30N 51°25' E 001°45'510.6
2017-Apr-24 15:00N 51°19' E 001°43'510.6
2017-Apr-24 14:30N 51°15' E 001°39'8 7.9
2017-Apr-24 13:30N 51°07' E 001°39'5 9.9
2017-Apr-24 13:00N 51°02' E 001°36'611.9
2017-Apr-24 12:30N 50°57' E 001°31'612.3
2017-Apr-24 12:00N 50°52' E 001°27'612.5
2017-Apr-24 11:30N 50°46' E 001°23'3611.2
2017-Apr-24 08:19N 50°26' E 000°37'412.1
2017-Apr-24 08:00N 50°25' E 000°31'612.4
2017-Apr-24 07:29N 50°23' E 000°21'712.9
2017-Apr-24 06:58N 50°22' E 000°11'712.7
2017-Apr-24 06:27N 50°20' E 000°01'612.7
2017-Apr-24 06:00N 50°18' W 000°08'612.7
2017-Apr-24 05:30N 50°17' W 000°17'612.6
2017-Apr-24 05:00N 50°15' W 000°27'612.3
2017-Apr-24 04:30N 50°13' W 000°36'611.8
2017-Apr-24 04:00N 50°12' W 000°45'611.3
2017-Apr-24 03:30N 50°10' W 000°53'510.6
2017-Apr-24 03:00N 50°09' W 001°01'13 9.3
2017-Apr-24 01:38N 50°06' W 001°21'4 8.3
2017-Apr-24 01:06N 50°04' W 001°27'1 8.0
2017-Apr-24 01:00N 50°04' W 001°28'33 8.2
2017-Apr-23 20:56N 49°54' W 002°18'510.6
2017-Apr-23 20:30N 49°53' W 002°25'611.0
2017-Apr-23 20:00N 49°52' W 002°33'611.2
2017-Apr-23 19:30N 49°50' W 002°42'611.5
2017-Apr-23 19:00N 49°49' W 002°50'611.4
2017-Apr-23 18:30N 49°47' W 002°59'611.3
2017-Apr-23 18:00N 49°45' W 003°07'1111.5
2017-Apr-23 17:02N 49°39' W 003°21'011.4
2017-Apr-23 17:00N 49°38' W 003°22'611.5
2017-Apr-23 16:30N 49°35' W 003°29'911.5
2017-Apr-23 15:44N 49°31' W 003°41'311.5
2017-Apr-23 15:29N 49°29' W 003°44'611.5
2017-Apr-23 15:00N 49°26' W 003°52'611.4
2017-Apr-23 14:30N 49°23' W 003°59'1111.3
2017-Apr-23 13:30N 49°18' W 004°14'611.1
2017-Apr-23 13:00N 49°15' W 004°21'510.9
2017-Apr-23 12:30N 49°12' W 004°29'610.8
2017-Apr-23 11:58N 49°09' W 004°36'2010.2
2017-Apr-23 09:57N 48°59' W 005°03'5 9.6
2017-Apr-23 09:28N 48°56' W 005°09'8 9.2
2017-Apr-23 08:39N 48°53' W 005°19'1 8.9
2017-Apr-23 08:30N 48°52' W 005°21'4 8.8
2017-Apr-23 08:00N 48°50' W 005°27'4 8.7
2017-Apr-23 07:30N 48°47' W 005°32'4 8.4
2017-Apr-23 07:00N 48°45' W 005°37'14 8.7
2017-Apr-23 05:23N 48°32' W 005°46'4 8.7
2017-Apr-23 04:57N 48°28' W 005°49'162 9.3
2017-Apr-22 11:30N 46°05' W 007°39'15 8.6
2017-Apr-22 09:45N 45°52' W 007°49'3 8.3
2017-Apr-22 09:27N 45°50' W 007°51'4 8.3
2017-Apr-22 08:57N 45°46' W 007°54'3 7.8
2017-Apr-22 08:30N 45°43' W 007°56'4 8.1
2017-Apr-22 07:59N 45°39' W 007°59'4 7.9
2017-Apr-22 07:29N 45°36' W 008°01'4 7.9
2017-Apr-22 07:00N 45°32' W 008°04'  

Dump ship's entire track history